Time;durP1;ratioP1;P1;durP2;ratioP2;P2;SDS_P1;SDS_P2;PMS_P1;PMS_P2;Temp;Humidity;BMP_temperature;BMP_pressure;BME280_temperature;BME280_humidity;BME280_pressure;Samples;Min_cycle;Max_cycle;Signal;HPM_P1;HPM_P2
2021/07/12 00:01:59;;;;;;;7.38;6.68;;;;;;;18.34;84.71;98348.23;126336;1093;26276;-86
2021/07/12 00:04:40;;;;;;;11.13;8.73;;;;;;;18.33;84.38;98352.09;126315;1093;22784;-86
2021/07/12 00:07:07;;;;;;;9.18;8.03;;;;;;;18.32;84.32;98349.64;126250;1097;27192;-85
2021/07/12 00:09:49;;;;;;;12.28;8.60;;;;;;;18.29;84.29;98347.47;126048;1096;27319;-85
2021/07/12 00:12:18;;;;;;;12.00;7.70;;;;;;;18.26;84.24;98351.66;126121;1093;22769;-85
2021/07/12 00:14:46;;;;;;;8.68;6.85;;;;;;;18.23;84.39;98343.97;126012;1093;22790;-85
2021/07/12 00:17:27;;;;;;;9.58;7.55;;;;;;;18.17;84.16;98339.66;126005;1094;26198;-85
2021/07/12 00:20:11;;;;;;;10.45;7.20;;;;;;;18.08;84.24;98331.24;126040;1093;22776;-85
2021/07/12 00:22:54;;;;;;;9.43;6.63;;;;;;;18.00;84.59;98329.95;126056;1093;24580;-85
2021/07/12 00:25:36;;;;;;;8.65;6.88;;;;;;;17.91;84.76;98328.98;126007;1093;22925;-85
2021/07/12 00:28:17;;;;;;;7.83;6.80;;;;;;;17.86;85.09;98328.23;126013;1093;22750;-87
2021/07/12 00:30:45;;;;;;;9.48;6.80;;;;;;;17.87;85.41;98329.89;125985;1093;22787;-85
2021/07/12 00:33:13;;;;;;;9.38;6.28;;;;;;;17.89;85.18;98333.98;126007;1093;22799;-85
2021/07/12 00:35:54;;;;;;;12.70;6.30;;;;;;;17.89;85.51;98333.17;126019;1094;22771;-85
2021/07/12 00:38:23;;;;;;;8.23;6.28;;;;;;;17.87;85.32;98327.14;126047;1093;24427;-85
2021/07/12 00:41:05;;;;;;;12.00;7.35;;;;;;;17.84;85.48;98337.58;126030;1093;22922;-85
2021/07/12 00:43:35;;;;;;;10.40;7.00;;;;;;;17.81;85.15;98338.19;126048;1093;22916;-85
2021/07/12 00:46:17;;;;;;;8.70;6.95;;;;;;;17.75;85.71;98336.60;126088;1093;22812;-86
2021/07/12 00:48:59;;;;;;;8.60;7.43;;;;;;;17.70;85.72;98333.09;126085;1093;22906;-85
2021/07/12 00:51:28;;;;;;;8.90;7.48;;;;;;;17.64;85.69;98340.61;126037;1093;22758;-85
2021/07/12 00:54:10;;;;;;;9.80;6.85;;;;;;;17.60;85.58;98339.53;126023;1093;22784;-85
2021/07/12 00:56:38;;;;;;;10.78;7.10;;;;;;;17.58;85.69;98344.52;126124;1093;24041;-85
2021/07/12 00:59:07;;;;;;;8.57;6.20;;;;;;;17.61;85.91;98335.69;126010;1093;25836;-85
2021/07/12 01:01:35;;;;;;;10.85;6.75;;;;;;;17.65;86.21;98340.32;126093;1093;22763;-85
2021/07/12 01:04:21;;;;;;;8.83;6.73;;;;;;;17.70;85.90;98330.34;126059;1094;25944;-85
2021/07/12 01:07:03;;;;;;;11.10;6.83;;;;;;;17.69;85.22;98326.78;126011;1093;27146;-85
2021/07/12 01:09:45;;;;;;;10.20;6.93;;;;;;;17.62;85.64;98329.89;126034;1093;22848;-85
2021/07/12 01:12:42;;;;;;;8.78;6.58;;;;;;;17.58;85.74;98326.09;126010;1093;22774;-85
2021/07/12 01:15:15;;;;;;;9.95;6.55;;;;;;;17.54;85.83;98316.76;126057;1092;22848;-84
2021/07/12 01:18:34;;;;;;;10.67;6.80;;;;;;;17.53;85.88;98311.55;126041;1093;26207;-85
2021/07/12 01:21:53;;;;;;;11.88;8.23;;;;;;;17.48;86.24;98304.19;126070;1093;22916;-85
2021/07/12 01:25:00;;;;;;;7.75;6.90;;;;;;;17.44;86.30;98308.62;126022;1093;22846;-85
2021/07/12 01:27:42;;;;;;;10.88;7.55;;;;;;;17.45;86.74;98318.53;126150;1093;22778;-87
2021/07/12 01:30:36;;;;;;;10.18;7.10;;;;;;;17.49;86.65;98316.82;126045;1093;23055;-85
2021/07/12 01:33:17;;;;;;;10.03;7.40;;;;;;;17.49;86.34;98314.06;126064;1093;24437;-85
2021/07/12 01:36:13;;;;;;;8.65;6.25;;;;;;;17.43;86.71;98307.80;126087;1093;22767;-84
2021/07/12 01:38:55;;;;;;;9.30;7.90;;;;;;;17.39;86.74;98314.21;126140;1094;22847;-85
2021/07/12 01:42:02;;;;;;;10.50;7.10;;;;;;;17.35;86.85;98311.23;126051;1093;22794;-85
2021/07/12 01:44:48;;;;;;;7.70;6.90;;;;;;;17.34;86.92;98311.52;126060;1093;27169;-84
2021/07/12 01:47:58;;;;;;;11.48;7.08;;;;;;;17.28;87.13;98310.73;126056;1093;22763;-85
2021/07/12 01:50:57;;;;;;;10.30;6.73;;;;;;;17.33;87.22;98318.13;126039;1093;22781;-85
2021/07/12 01:53:48;;;;;;;7.80;6.65;;;;;;;17.38;87.52;98316.13;126021;1093;22770;-85
2021/07/12 01:56:40;;;;;;;8.28;7.00;;;;;;;17.42;87.08;98317.20;126157;1093;22655;-85
2021/07/12 01:59:49;;;;;;;9.17;7.10;;;;;;;17.46;87.08;98320.18;126040;1093;22767;-84
2021/07/12 02:02:33;;;;;;;11.18;8.18;;;;;;;17.52;86.83;98321.75;126107;1093;22767;-85
2021/07/12 02:05:25;;;;;;;14.27;7.07;;;;;;;17.56;87.17;98324.73;126021;1093;25820;-85
2021/07/12 02:07:55;;;;;;;9.78;6.98;;;;;;;17.59;86.83;98324.15;126242;1093;25852;-85
2021/07/12 02:10:38;;;;;;;12.15;7.58;;;;;;;17.60;86.21;98320.27;126110;1093;27249;-85
2021/07/12 02:13:21;;;;;;;10.03;7.85;;;;;;;17.57;86.26;98315.37;126028;1093;22771;-85
2021/07/12 02:16:12;;;;;;;10.95;8.10;;;;;;;17.54;86.22;98300.23;125992;1093;22818;-87
2021/07/12 02:18:56;;;;;;;13.50;7.35;;;;;;;17.55;86.17;98295.57;126025;1093;26296;-85
2021/07/12 02:21:53;;;;;;;10.28;7.68;;;;;;;17.52;85.99;98299.72;126045;1093;22812;-85
2021/07/12 02:24:49;;;;;;;11.00;7.30;;;;;;;17.46;86.17;98287.14;126077;1093;22790;-85
2021/07/12 02:27:21;;;;;;;11.25;8.33;;;;;;;17.43;86.09;98288.53;126097;1093;22822;-85
2021/07/12 02:30:06;;;;;;;12.75;8.03;;;;;;;17.42;86.59;98292.42;126113;1093;22772;-85
2021/07/12 02:32:49;;;;;;;12.28;6.90;;;;;;;17.43;86.27;98291.28;125980;1094;27125;-85
2021/07/12 02:35:31;;;;;;;10.10;7.30;;;;;;;17.49;86.65;98302.24;126034;1093;24587;-85
2021/07/12 02:38:00;;;;;;;10.80;8.08;;;;;;;17.52;86.30;98288.70;126087;1093;23457;-85
2021/07/12 02:40:45;;;;;;;11.80;7.95;;;;;;;17.58;86.71;98295.80;126024;1093;22791;-86
2021/07/12 02:43:13;;;;;;;11.23;7.60;;;;;;;17.61;86.02;98286.92;126075;1093;22851;-85
2021/07/12 02:45:43;;;;;;;10.13;7.85;;;;;;;17.60;85.73;98296.32;126102;1093;22748;-85
2021/07/12 02:48:10;;;;;;;7.48;6.08;;;;;;;17.61;85.97;98289.69;126095;1093;26245;-85
2021/07/12 02:50:41;;;;;;;10.40;7.55;;;;;;;17.60;85.65;98287.22;126054;1094;22843;-85
2021/07/12 02:53:30;;;;;;;9.08;7.63;;;;;;;17.59;85.62;98297.42;126074;1096;24412;-85
2021/07/12 02:56:12;;;;;;;10.75;8.20;;;;;;;17.63;85.92;98300.41;126026;1093;22915;-85
2021/07/12 02:58:40;;;;;;;11.17;8.00;;;;;;;17.62;85.85;98304.30;126122;1093;22815;-85
2021/07/12 03:01:08;;;;;;;15.03;7.78;;;;;;;17.62;85.48;98305.10;126056;1096;27160;-85
2021/07/12 03:03:53;;;;;;;14.68;8.08;;;;;;;17.62;85.77;98309.80;126017;1093;22790;-85
2021/07/12 03:06:36;;;;;;;11.80;7.57;;;;;;;17.63;85.51;98316.92;126067;1093;27156;-85
2021/07/12 03:09:13;;;;;;;13.13;7.63;;;;;;;17.61;85.38;98322.73;126050;1093;27128;-85
2021/07/12 03:12:00;;;;;;;12.43;8.38;;;;;;;17.60;85.72;98321.11;126056;1092;24458;-85
2021/07/12 03:14:50;;;;;;;12.05;7.68;;;;;;;17.59;85.86;98321.39;126065;1094;27590;-86
2021/07/12 03:17:21;;;;;;;10.00;7.57;;;;;;;17.58;85.84;98316.98;126085;1093;22969;-86
2021/07/12 03:20:05;;;;;;;13.20;8.78;;;;;;;17.61;86.16;98319.97;126064;1093;26216;-86
2021/07/12 03:22:54;;;;;;;11.13;8.28;;;;;;;17.60;85.69;98317.51;126034;1093;27178;-86
2021/07/12 03:25:36;;;;;;;11.97;8.27;;;;;;;17.58;85.25;98312.33;126056;1092;22764;-86
2021/07/12 03:28:05;;;;;;;8.45;7.05;;;;;;;17.63;85.64;98325.19;126152;1093;26739;-86
2021/07/12 03:30:48;;;;;;;10.15;7.63;;;;;;;17.64;85.51;98326.84;126093;1093;22838;-86
2021/07/12 03:33:18;;;;;;;11.43;8.20;;;;;;;17.65;85.59;98323.80;125983;1093;22800;-86
2021/07/12 03:36:03;;;;;;;14.43;8.60;;;;;;;17.67;85.54;98319.91;125983;1094;22937;-86
2021/07/12 03:38:33;;;;;;;9.68;8.00;;;;;;;17.68;85.71;98322.38;126054;1094;22829;-86
2021/07/12 03:41:01;;;;;;;12.68;8.33;;;;;;;17.72;85.42;98328.92;126064;1094;27141;-86
2021/07/12 03:43:43;;;;;;;15.90;9.58;;;;;;;17.77;85.90;98331.61;126042;1093;22811;-86
2021/07/12 03:46:26;;;;;;;13.73;10.20;;;;;;;17.84;86.06;98334.02;126078;1093;27323;-86
2021/07/12 03:48:53;;;;;;;17.23;10.75;;;;;;;17.87;85.70;98335.41;126023;1093;22803;-86
2021/07/12 03:51:38;;;;;;;13.38;10.80;;;;;;;17.89;85.91;98333.17;126062;1093;27172;-86
2021/07/12 03:54:20;;;;;;;15.43;10.20;;;;;;;17.94;85.60;98325.65;126029;1093;24574;-86
2021/07/12 03:56:47;;;;;;;13.48;10.60;;;;;;;17.97;85.70;98325.06;126069;1093;22775;-86
2021/07/12 03:59:29;;;;;;;15.58;11.18;;;;;;;18.00;85.55;98329.95;126004;1093;26225;-85
2021/07/12 04:02:11;;;;;;;17.65;11.75;;;;;;;17.99;85.35;98325.58;126041;1093;26226;-86
2021/07/12 04:04:38;;;;;;;18.03;11.60;;;;;;;17.98;85.21;98321.17;126126;1093;22825;-86
2021/07/12 04:07:19;;;;;;;14.08;11.35;;;;;;;17.99;85.45;98324.77;126020;1092;22815;-86
2021/07/12 04:09:47;;;;;;;15.25;11.18;;;;;;;18.03;85.36;98318.34;126094;1093;22793;-86
2021/07/12 04:12:22;;;;;;;15.25;11.40;;;;;;;18.09;85.41;98327.35;126064;1093;22796;-86
2021/07/12 04:15:05;;;;;;;13.70;10.38;;;;;;;18.09;84.89;98324.59;126026;1093;22938;-86
2021/07/12 04:17:47;;;;;;;13.88;10.53;;;;;;;17.99;84.98;98311.80;126053;1093;22783;-86
2021/07/12 04:20:15;;;;;;;15.48;10.43;;;;;;;17.92;85.13;98305.84;125990;1093;22807;-86
2021/07/12 04:22:59;;;;;;;13.25;7.93;;;;;;;17.83;85.45;98304.84;126023;1093;22783;-85
2021/07/12 04:25:41;;;;;;;17.65;9.25;;;;;;;17.73;85.52;98299.47;126045;1093;26378;-86
2021/07/12 04:28:08;;;;;;;9.40;8.40;;;;;;;17.67;85.85;98303.39;126029;1094;22800;-86
2021/07/12 04:30:36;;;;;;;15.85;10.00;;;;;;;17.64;86.10;98305.63;126137;1093;25855;-86
2021/07/12 04:33:17;;;;;;;15.23;10.05;;;;;;;17.70;86.96;98302.80;126053;1093;22814;-86
2021/07/12 04:35:59;;;;;;;15.33;10.08;;;;;;;17.80;87.25;98316.45;126038;1093;22764;-86
2021/07/12 04:38:40;;;;;;;15.10;10.23;;;;;;;17.89;86.59;98317.45;126038;1093;27170;-86
2021/07/12 04:41:08;;;;;;;14.98;10.95;;;;;;;17.96;86.70;98314.33;126031;1093;22794;-86
2021/07/12 04:43:49;;;;;;;13.58;9.90;;;;;;;18.06;86.80;98321.63;126076;1093;22767;-86
2021/07/12 04:46:30;;;;;;;18.60;12.43;;;;;;;18.21;86.61;98333.23;126062;1093;22777;-85
2021/07/12 04:48:58;;;;;;;18.65;11.23;;;;;;;18.35;86.64;98335.26;126020;1093;22800;-87
2021/07/12 04:51:40;;;;;;;14.65;11.50;;;;;;;18.54;86.83;98343.52;126006;1093;26216;-86
2021/07/12 04:54:25;;;;;;;19.65;11.15;;;;;;;18.68;85.97;98344.39;126019;1093;26266;-85
2021/07/12 04:57:06;;;;;;;16.75;12.53;;;;;;;18.80;86.04;98332.86;125998;1093;25849;-86
2021/07/12 04:59:39;;;;;;;20.45;12.55;;;;;;;18.90;85.43;98343.76;126048;1093;27182;-86
2021/07/12 05:02:20;;;;;;;16.35;11.58;;;;;;;18.97;85.06;98348.89;126147;1093;22803;-85
2021/07/12 05:04:48;;;;;;;13.48;12.05;;;;;;;19.00;84.24;98334.49;126034;1093;25858;-85
2021/07/12 05:07:15;;;;;;;15.85;11.55;;;;;;;19.05;84.25;98334.41;126013;1093;26270;-86
2021/07/12 05:09:57;;;;;;;14.70;10.80;;;;;;;19.09;84.39;98337.38;126066;1092;22911;-86
2021/07/12 05:12:24;;;;;;;15.25;10.88;;;;;;;19.10;83.58;98341.75;126081;1092;22754;-86
2021/07/12 05:15:08;;;;;;;13.58;10.73;;;;;;;19.05;83.42;98348.20;126124;1092;22938;-86
2021/07/12 05:17:37;;;;;;;15.00;11.35;;;;;;;19.00;83.62;98341.94;126111;1093;22908;-86
2021/07/12 05:20:09;;;;;;;14.68;10.78;;;;;;;18.99;83.65;98332.03;126034;1094;26245;-86
2021/07/12 05:22:50;;;;;;;14.87;10.20;;;;;;;18.95;83.57;98329.06;126056;1093;23405;-86
2021/07/12 05:25:32;;;;;;;14.43;10.68;;;;;;;18.84;83.54;98331.19;126002;1093;22777;-86
2021/07/12 05:28:13;;;;;;;15.35;11.30;;;;;;;18.73;84.00;98325.00;126000;1094;27278;-86
2021/07/12 05:30:55;;;;;;;15.80;10.80;;;;;;;18.65;84.16;98324.87;126087;1093;22790;-86
2021/07/12 05:33:36;;;;;;;17.28;10.98;;;;;;;18.59;84.74;98329.63;126286;1093;26085;-87
2021/07/12 05:36:04;;;;;;;16.45;11.43;;;;;;;18.55;84.87;98315.62;126267;1093;22898;-86
2021/07/12 05:38:46;;;;;;;16.25;10.93;;;;;;;18.53;84.86;98322.56;126432;1093;24427;-86
2021/07/12 05:41:27;;;;;;;15.33;11.10;;;;;;;18.55;85.37;98314.81;126299;1093;27258;-86
2021/07/12 05:43:55;;;;;;;13.65;9.98;;;;;;;18.58;85.09;98311.45;126256;1094;22796;-86
2021/07/12 05:46:23;;;;;;;14.60;9.80;;;;;;;18.55;85.05;98310.09;126422;1092;22735;-87
2021/07/12 05:48:50;;;;;;;12.90;10.28;;;;;;;18.54;84.99;98307.67;126300;1093;22751;-87
2021/07/12 05:51:18;;;;;;;13.13;9.93;;;;;;;18.53;85.22;98308.78;126372;1093;22848;-87
2021/07/12 05:53:59;;;;;;;14.55;9.90;;;;;;;18.55;85.65;98306.53;126424;1093;23898;-87
2021/07/12 05:56:41;;;;;;;15.03;10.10;;;;;;;18.62;85.95;98308.91;126269;1093;22931;-87
2021/07/12 05:59:08;;;;;;;11.85;9.88;;;;;;;18.77;85.83;98312.23;126305;1093;23623;-86
2021/07/12 06:01:50;;;;;;;14.07;10.63;;;;;;;18.96;86.19;98317.73;126339;1093;23205;-86
2021/07/12 06:04:18;;;;;;;12.18;10.28;;;;;;;19.15;86.02;98314.88;126327;1093;24286;-87
2021/07/12 06:07:00;;;;;;;14.20;10.05;;;;;;;19.35;85.72;98316.44;126288;1093;22820;-87
2021/07/12 06:09:28;;;;;;;17.65;10.45;;;;;;;19.53;85.31;98313.89;126380;1093;27199;-87
2021/07/12 06:11:56;;;;;;;16.13;9.67;;;;;;;19.74;85.19;98319.81;126366;1093;26213;-88
2021/07/12 06:14:37;;;;;;;14.33;9.60;;;;;;;19.93;84.26;98314.16;126303;1093;22784;-88
2021/07/12 06:17:19;;;;;;;14.33;10.03;;;;;;;20.13;83.62;98320.36;126306;1092;22787;-88
2021/07/12 06:19:47;;;;;;;11.78;9.33;;;;;;;20.25;83.02;98310.38;126302;1093;22814;-87
2021/07/12 06:22:28;;;;;;;13.88;10.10;;;;;;;20.39;82.63;98315.86;126287;1093;22777;-88
2021/07/12 06:25:11;;;;;;;16.05;10.50;;;;;;;20.51;81.68;98307.02;126330;1093;22809;-88
2021/07/12 06:27:41;;;;;;;13.38;11.05;;;;;;;20.59;81.41;98310.97;126374;1092;27299;-88
2021/07/12 06:30:10;;;;;;;14.48;10.68;;;;;;;20.68;81.69;98314.63;126291;1093;22767;-88
2021/07/12 06:32:51;;;;;;;14.10;11.28;;;;;;;20.82;81.98;98309.87;126313;1093;25846;-88
2021/07/12 06:35:33;;;;;;;15.80;10.38;;;;;;;20.95;81.15;98310.91;126302;1093;26264;-88
2021/07/12 06:38:01;;;;;;;;;;;;;;;21.11;80.40;98308.55;126433;1093;22841;-88
2021/07/12 06:40:29;;;;;;;10.98;9.68;;;;;;;21.19;80.39;98316.06;126467;1093;21464;-88
2021/07/12 06:42:57;;;;;;;15.80;10.17;;;;;;;21.27;80.46;98319.22;126617;1093;22845;-88
2021/07/12 06:45:25;;;;;;;11.10;9.70;;;;;;;21.32;79.95;98306.05;126407;1093;22806;-88
2021/07/12 06:47:52;;;;;;;12.73;9.83;;;;;;;21.41;80.19;98314.39;126381;1092;22772;-88
2021/07/12 06:50:22;;;;;;;12.80;10.43;;;;;;;21.53;79.83;98322.11;126214;1094;25836;-88
2021/07/12 06:52:50;;;;;;;11.77;10.10;;;;;;;21.65;79.65;98318.73;126088;1093;23201;-88
2021/07/12 06:55:19;;;;;;;13.83;10.25;;;;;;;21.76;78.84;98314.50;126024;1092;26220;-89
2021/07/12 06:57:47;;;;;;;13.58;11.38;;;;;;;21.91;78.89;98314.06;126013;1093;22835;-89
2021/07/12 07:00:15;;;;;;;11.28;10.18;;;;;;;22.07;78.61;98316.38;126040;1093;22813;-88
2021/07/12 07:03:01;;;;;;;12.35;10.55;;;;;;;22.26;78.61;98321.63;125974;1093;22868;-88
2021/07/12 07:05:30;;;;;;;11.48;10.28;;;;;;;22.43;78.72;98309.72;126054;1093;22804;-89
2021/07/12 07:08:19;;;;;;;;;;;;;;;22.54;77.74;98308.23;126767;1093;26336;-88
2021/07/12 07:11:05;;;;;;;10.45;8.40;;;;;;;22.68;77.26;98303.34;126675;1093;21460;-88
2021/07/12 07:13:35;;;;;;;14.98;12.25;;;;;;;22.80;77.67;98299.06;126501;1093;25946;-89
2021/07/12 07:16:07;;;;;;;14.13;10.37;;;;;;;22.94;76.89;98296.91;126518;1094;25833;-89
2021/07/12 07:18:36;;;;;;;11.50;10.28;;;;;;;23.03;75.95;98302.44;126123;1093;22754;-89
2021/07/12 07:21:05;;;;;;;12.30;10.73;;;;;;;23.16;76.13;98312.57;126080;1093;22848;-88
2021/07/12 07:23:34;;;;;;;11.25;10.18;;;;;;;23.30;74.86;98310.39;126011;1093;22915;-88
2021/07/12 07:26:16;;;;;;;14.18;10.28;;;;;;;23.40;74.40;98311.97;126009;1093;22784;-88
2021/07/12 07:28:58;;;;;;;12.13;9.65;;;;;;;23.55;74.15;98318.11;126032;1093;22837;-88
2021/07/12 07:31:39;;;;;;;10.95;9.78;;;;;;;23.63;73.78;98322.83;126018;1093;22771;-87
2021/07/12 07:34:21;;;;;;;11.10;9.95;;;;;;;23.73;72.93;98319.67;126063;1093;22825;-88
2021/07/12 07:36:49;;;;;;;13.50;10.70;;;;;;;23.73;72.44;98310.49;125989;1094;22864;-88
2021/07/12 07:39:17;;;;;;;10.53;9.37;;;;;;;23.82;72.30;98309.34;126033;1093;22877;-88
2021/07/12 07:41:45;;;;;;;;;;;;;;;23.90;72.60;98320.74;126067;1093;25092;-88
2021/07/12 07:44:14;;;;;;;11.55;9.93;;;;;;;23.97;72.31;98321.02;126094;1092;23375;-88
2021/07/12 07:46:44;;;;;;;12.43;11.03;;;;;;;24.06;71.25;98322.61;126130;1093;22813;-88
2021/07/12 07:49:13;;;;;;;12.10;10.30;;;;;;;23.97;69.88;98321.83;126076;1093;25867;-89
2021/07/12 07:51:43;;;;;;;14.40;10.35;;;;;;;23.96;70.80;98324.97;126017;1093;22773;-88
2021/07/12 07:54:13;;;;;;;14.45;10.30;;;;;;;23.91;70.33;98317.63;126147;1093;22853;-88
2021/07/12 07:56:40;;;;;;;14.47;10.27;;;;;;;23.90;70.89;98320.74;126057;1094;22808;-88
2021/07/12 07:59:11;;;;;;;11.93;9.13;;;;;;;23.96;71.15;98327.76;126121;1094;24153;-88
2021/07/12 08:01:40;;;;;;;11.13;9.50;;;;;;;24.02;71.05;98329.98;126122;1094;26226;-88
2021/07/12 08:04:08;;;;;;;11.93;9.15;;;;;;;24.09;70.34;98328.65;125988;1094;24424;-88
2021/07/12 08:06:36;;;;;;;11.20;10.03;;;;;;;24.06;70.14;98339.30;126218;1093;22790;-88
2021/07/12 08:09:04;;;;;;;14.17;9.20;;;;;;;24.06;70.51;98328.17;126081;1094;22824;-88
2021/07/12 08:11:33;;;;;;;12.40;10.25;;;;;;;24.05;70.47;98331.29;126085;1094;22777;-88
2021/07/12 08:14:22;;;;;;;10.55;9.50;;;;;;;24.03;70.27;98333.59;126040;1094;22797;-88
2021/07/12 08:16:58;;;;;;;11.83;10.20;;;;;;;23.92;69.61;98322.05;125985;1093;22909;-88
2021/07/12 08:19:27;;;;;;;13.53;10.70;;;;;;;23.74;69.55;98329.63;126050;1092;22944;-87
2021/07/12 08:21:55;;;;;;;13.45;12.08;;;;;;;23.57;70.14;98329.70;126105;1092;23700;-87
2021/07/12 08:24:23;;;;;;;17.40;12.68;;;;;;;23.45;70.59;98331.24;126117;1093;22786;-89
2021/07/12 08:26:51;;;;;;;18.30;12.33;;;;;;;23.32;70.56;98329.52;126109;1093;22816;-88
2021/07/12 08:29:23;;;;;;;14.78;13.00;;;;;;;23.17;71.37;98330.85;126119;1095;27557;-88
2021/07/12 08:31:50;;;;;;;14.08;12.68;;;;;;;23.15;72.20;98335.93;126116;1093;27383;-88
2021/07/12 08:34:18;;;;;;;14.35;12.80;;;;;;;23.10;71.91;98338.88;126079;1093;22931;-88
2021/07/12 08:36:46;;;;;;;14.63;12.08;;;;;;;23.02;72.12;98345.23;126022;1093;22782;-88
2021/07/12 08:39:14;;;;;;;14.63;12.33;;;;;;;22.99;72.39;98355.05;126024;1093;24571;-88
2021/07/12 08:41:41;;;;;;;14.33;11.20;;;;;;;22.97;72.29;98356.55;126040;1093;24442;-88
2021/07/12 08:44:09;;;;;;;16.18;11.20;;;;;;;22.96;72.37;98360.45;126071;1093;22800;-88
2021/07/12 08:46:37;;;;;;;11.50;9.93;;;;;;;22.92;71.67;98361.10;126124;1093;22777;-88
2021/07/12 08:49:05;;;;;;;12.65;10.93;;;;;;;22.83;71.50;98351.98;126209;1093;26235;-87
2021/07/12 08:51:33;;;;;;;12.83;11.18;;;;;;;22.70;71.59;98351.02;126226;1094;27039;-88
2021/07/12 08:54:01;;;;;;;20.80;11.40;;;;;;;22.68;71.74;98355.25;126032;1093;24455;-87
2021/07/12 08:56:43;;;;;;;14.05;11.50;;;;;;;22.66;72.02;98363.09;126131;1093;25966;-87
2021/07/12 08:59:32;;;;;;;12.98;10.85;;;;;;;22.71;72.58;98365.70;126090;1093;26267;-87
2021/07/12 09:02:16;;;;;;;11.87;9.47;;;;;;;22.74;71.74;98357.54;126057;1093;22797;-89
2021/07/12 09:04:48;;;;;;;13.83;9.53;;;;;;;22.75;71.69;98363.89;126084;1092;22934;-85
2021/07/12 09:07:22;;;;;;;12.43;9.23;;;;;;;22.73;70.91;98366.19;126407;1092;22819;-86
2021/07/12 09:10:14;;;;;;;10.35;9.25;;;;;;;22.71;71.15;98365.70;126128;1093;22983;-86
2021/07/12 09:12:48;;;;;;;10.57;8.43;;;;;;;22.74;70.86;98371.42;126102;1093;25946;-86
2021/07/12 09:15:19;;;;;;;9.97;9.00;;;;;;;22.79;70.87;98376.00;126083;1094;27154;-86
2021/07/12 09:18:15;;;;;;;12.20;9.95;;;;;;;22.85;71.14;98380.23;126186;1093;22825;-87
2021/07/12 09:20:43;;;;;;;10.75;9.65;;;;;;;22.91;70.86;98389.20;126102;1093;23215;-86
2021/07/12 09:23:24;;;;;;;10.20;9.20;;;;;;;22.91;70.23;98390.03;126100;1093;22795;-86
2021/07/12 09:26:04;;;;;;;9.75;7.50;;;;;;;22.93;69.12;98390.52;126091;1096;22842;-85
2021/07/12 09:28:47;;;;;;;9.45;7.55;;;;;;;22.84;68.64;98409.16;126227;1093;22944;-86
2021/07/12 09:31:29;;;;;;;10.83;8.08;;;;;;;22.73;68.50;98424.49;126067;1093;25970;-86
2021/07/12 09:34:11;;;;;;;9.25;7.95;;;;;;;22.67;68.35;98425.81;126235;1093;22755;-85
2021/07/12 09:36:39;;;;;;;11.60;8.43;;;;;;;22.63;68.84;98433.97;126094;1093;22762;-85
2021/07/12 09:39:32;;;;;;;;;;;;;;;22.62;69.63;98426.78;126288;1096;22758;-86
2021/07/12 09:42:22;;;;;;;11.78;10.55;;;;;;;22.63;70.30;98424.81;126141;1093;23091;-86
2021/07/12 09:45:08;;;;;;;13.00;10.45;;;;;;;22.66;71.47;98426.94;126364;1092;22784;-85
2021/07/12 09:47:41;;;;;;;13.05;9.93;;;;;;;22.69;71.45;98413.22;126102;1093;22828;-88
2021/07/12 09:50:28;;;;;;;13.43;9.95;;;;;;;22.66;71.19;98397.21;125953;1093;22754;-85
2021/07/12 09:53:07;;;;;;;10.13;9.03;;;;;;;22.57;71.36;98388.08;126075;1092;26255;-85
2021/07/12 09:55:50;;;;;;;10.63;8.80;;;;;;;22.45;72.86;98385.97;126093;1093;23050;-86
2021/07/12 09:58:20;;;;;;;13.00;9.60;;;;;;;22.33;73.46;98396.89;126001;1093;22764;-86
2021/07/12 10:00:48;;;;;;;10.75;9.50;;;;;;;22.23;73.66;98384.09;125997;1094;22767;-86
2021/07/12 10:03:19;;;;;;;12.80;10.60;;;;;;;22.12;74.33;98371.69;126000;1093;22928;-86
2021/07/12 10:06:04;;;;;;;13.58;12.15;;;;;;;21.98;74.39;98383.72;126092;1093;22760;-86
2021/07/12 10:08:32;;;;;;;13.40;10.87;;;;;;;21.90;74.54;98387.30;125980;1094;22782;-86
2021/07/12 10:11:00;;;;;;;10.43;9.33;;;;;;;21.80;74.78;98393.14;126081;1093;24137;-86
2021/07/12 10:13:42;;;;;;;12.25;10.85;;;;;;;21.72;75.47;98394.72;126034;1093;22754;-86
2021/07/12 10:16:12;;;;;;;15.40;13.13;;;;;;;21.63;76.15;98393.06;126026;1093;22758;-86
2021/07/12 10:18:40;;;;;;;18.53;13.03;;;;;;;21.60;76.47;98403.66;126031;1094;22857;-86
2021/07/12 10:21:09;;;;;;;14.60;11.30;;;;;;;21.55;76.37;98391.91;126073;1093;22845;-87
2021/07/12 10:23:42;;;;;;;12.15;9.88;;;;;;;21.46;76.27;98388.25;126022;1094;22758;-87
2021/07/12 10:26:13;;;;;;;17.83;13.65;;;;;;;21.35;76.93;98379.37;126058;1093;27810;-87
2021/07/12 10:28:52;;;;;;;18.78;15.03;;;;;;;21.26;77.31;98389.59;126046;1093;22864;-87
2021/07/12 10:31:22;;;;;;;18.30;14.70;;;;;;;21.18;78.10;98388.41;125991;1094;22764;-87
2021/07/12 10:33:49;;;;;;;21.35;14.60;;;;;;;21.17;78.25;98392.30;126019;1093;24574;-86
2021/07/12 10:36:38;;;;;;;18.43;14.10;;;;;;;21.12;78.23;98387.70;126044;1097;22802;-86
2021/07/12 10:39:05;;;;;;;;;;;;;;;21.11;78.65;98377.78;126129;1093;22755;-86
2021/07/12 10:41:48;;;;;;;21.43;13.23;;;;;;;21.08;78.87;98392.25;126104;1093;21453;-86
2021/07/12 10:44:17;;;;;;;16.73;13.35;;;;;;;21.08;79.04;98397.79;126103;1093;26255;-87
2021/07/12 10:46:47;;;;;;;16.93;14.23;;;;;;;21.10;79.50;98406.59;126186;1093;22785;-87
2021/07/12 10:49:36;;;;;;;17.40;14.10;;;;;;;21.11;79.51;98405.47;126043;1094;25214;-87
2021/07/12 10:52:04;;;;;;;;;;;;;;;21.13;79.85;98403.20;126063;1093;22758;-88
2021/07/12 10:55:01;;;;;;;17.33;14.30;;;;;;;21.15;79.46;98397.35;126082;1093;21469;-87
2021/07/12 10:57:43;;;;;;;22.48;16.70;;;;;;;21.13;79.63;98388.55;126363;1093;22952;-85
2021/07/12 11:00:12;;;;;;;19.60;17.08;;;;;;;21.04;79.85;98372.69;126596;1092;22918;-85
2021/07/12 11:02:43;;;;;;;19.88;16.85;;;;;;;21.01;80.43;98362.23;126477;1093;22804;-86
2021/07/12 11:05:15;;;;;;;21.63;16.50;;;;;;;20.99;80.99;98372.81;126255;1093;22711;-86
2021/07/12 11:07:48;;;;;;;19.85;15.88;;;;;;;21.03;81.08;98379.38;126323;1093;22754;-86
2021/07/12 11:10:42;;;;;;;19.43;15.50;;;;;;;21.03;80.85;98365.53;126087;1093;22925;-85
2021/07/12 11:13:12;;;;;;;20.08;15.43;;;;;;;21.07;81.16;98371.25;126115;1091;27421;-85
2021/07/12 11:15:45;;;;;;;20.38;16.58;;;;;;;21.07;81.34;98378.72;126029;1093;22794;-86
2021/07/12 11:18:28;;;;;;;18.65;15.23;;;;;;;21.08;81.73;98372.87;126023;1093;26434;-87
2021/07/12 11:21:04;;;;;;;14.43;10.28;;;;;;;20.99;80.44;98378.34;126174;1093;22791;-86
2021/07/12 11:23:50;;;;;;;12.20;9.20;;;;;;;20.78;80.41;98368.92;126043;1093;22739;-87
2021/07/12 11:26:23;;;;;;;13.40;10.58;;;;;;;20.62;81.63;98366.52;126010;1093;22757;-87
2021/07/12 11:28:53;;;;;;;10.55;9.25;;;;;;;20.46;82.19;98366.03;126115;1094;24405;-87
2021/07/12 11:31:59;;;;;;;15.53;12.78;;;;;;;20.37;82.68;98376.21;126162;1093;22848;-88
2021/07/12 11:34:50;;;;;;;12.37;11.07;;;;;;;20.37;82.77;98367.11;126208;1093;26250;-88
2021/07/12 11:37:26;;;;;;;13.45;11.80;;;;;;;20.41;82.74;98368.11;125994;1093;22822;-88
2021/07/12 11:39:59;;;;;;;12.88;11.00;;;;;;;20.43;82.77;98363.91;126166;1093;22787;-87
2021/07/12 11:42:29;;;;;;;12.55;9.90;;;;;;;20.44;83.01;98386.86;126085;1093;22768;-88
2021/07/12 11:45:06;;;;;;;13.55;10.15;;;;;;;20.45;82.91;98392.08;126028;1093;22896;-86
2021/07/12 11:47:55;;;;;;;11.03;8.98;;;;;;;20.50;82.86;98391.13;126005;1093;22915;-87
2021/07/12 11:50:37;;;;;;;12.28;8.45;;;;;;;20.54;82.60;98366.42;126200;1093;22760;-87
2021/07/12 11:53:18;;;;;;;8.95;6.48;;;;;;;20.56;80.97;98370.52;126121;1094;22868;-87
2021/07/12 11:55:46;;;;;;;7.33;6.50;;;;;;;20.56;81.07;98381.59;126134;1093;22985;-87
2021/07/12 11:58:14;;;;;;;7.85;6.63;;;;;;;20.55;80.80;98393.78;126113;1093;22754;-87
2021/07/12 12:00:47;;;;;;;5.60;5.00;;;;;;;20.51;79.88;98386.44;126161;1093;25954;-87
2021/07/12 12:03:16;;;;;;;5.43;4.43;;;;;;;20.45;79.61;98385.70;126082;1094;22828;-88